»·PEaware :: N701DB KRNO-KLAS

N701DB :: KRNO-KLAS

FLIGHT INFORMATION

Flight Status: Arrived
Operator: Privately registered:
United States
More flights under this callsign
Pilot: Ryan B. (8502)
Aircraft: GULFSTREAM G-1159C GULFSTREAM 4
(GLF4)
More flights by this aircraft type
Origin: KRNO Reno/Tahoe Intl
United States
Destination: KLAS McCarran Intl
United States
More flights between these airports :: More routes between these airports
Route: +ZEFFR6 PESKE LIDAT J92 BTY SUNST4
File this flight plan on PilotEdge
Remarks:
Altitude:
(Current/Filed)
37,000ft
Speed:
(Current/Filed)
483kts
Departed: 06-Dec-17 03:27 PM
Arrived: 06-Dec-17 04:12 PM
Distance/Time
Traveled:
299nm/0:45
Distance/Time
To Go:
Arrived

Flight Plot

Page will automatically refresh every two minutes.

Flight plan parsing failed; only flown route is shown


Map Options




Map Legend


Flown Route
Filed Route
Departure Airport
Arrival Airport
Navaid (VOR, NDB)
Fix

Horizontal Profiles

Position Reports

Time Latitude Longitude Heading Altitude Ground
Speed
06-Dec-17 15:19 39.500412 -119.764469 180 4407ft 0kts
06-Dec-17 15:20 39.500412 -119.764469 180 4407ft 0kts
06-Dec-17 15:21 39.500412 -119.764469 180 4407ft 0kts
06-Dec-17 15:22 39.500412 -119.764469 180 4407ft 0kts
06-Dec-17 15:23 39.500412 -119.764469 180 4407ft 0kts
06-Dec-17 15:24 39.500412 -119.764469 180 4407ft 0kts
06-Dec-17 15:25 39.500412 -119.764469 180 4407ft 0kts
06-Dec-17 15:26 39.500412 -119.764469 180 4407ft 0kts
06-Dec-17 15:27 39.500412 -119.764469 180 4407ft 0kts
06-Dec-17 15:28 39.500412 -119.764469 180 4407ft 0kts
06-Dec-17 15:29 39.501225 -119.765693 322 4408ft 14kts
06-Dec-17 15:30 39.507593 -119.765769 1 4411ft 30kts
06-Dec-17 15:31 39.511624 -119.765152 0 4414ft 9kts
06-Dec-17 15:32 39.512530 -119.766745 178 4416ft 51kts
06-Dec-17 15:34 39.466251 -119.767578 176 7090ft 187kts
06-Dec-17 15:35 39.409138 -119.771484 177 10750ft 224kts
06-Dec-17 15:36 39.328372 -119.761301 146 13748ft 346kts
06-Dec-17 15:37 39.258603 -119.680199 129 18462ft 361kts
06-Dec-17 15:38 39.187880 -119.579520 127 23679ft 401kts
06-Dec-17 15:38 39.120999 -119.490371 131 27323ft 439kts
06-Dec-17 15:40 39.014788 -119.357854 133 31834ft 482kts
06-Dec-17 15:41 38.916896 -119.236839 134 34598ft 514kts
06-Dec-17 15:41 38.831874 -119.132226 134 36179ft 526kts
06-Dec-17 15:42 38.728548 -118.999039 131 36946ft 534kts
06-Dec-17 15:44 38.609584 -118.837321 131 37571ft 540kts
06-Dec-17 15:44 38.523861 -118.721366 132 37603ft 544kts
06-Dec-17 15:45 38.420322 -118.581838 132 37606ft 544kts
06-Dec-17 15:46 38.316869 -118.443033 131 37604ft 544kts
06-Dec-17 15:47 38.215883 -118.308123 132 37604ft 544kts
06-Dec-17 15:48 38.111758 -118.169708 132 37605ft 544kts
06-Dec-17 15:49 38.007388 -118.031520 132 37534ft 545kts
06-Dec-17 15:50 37.902863 -117.893742 132 37436ft 545kts
06-Dec-17 15:51 37.799562 -117.758156 132 37442ft 544kts
06-Dec-17 15:52 37.694684 -117.621086 132 37475ft 544kts
06-Dec-17 15:53 37.589860 -117.484700 132 37486ft 545kts
06-Dec-17 15:54 37.484986 -117.348827 133 37487ft 545kts
06-Dec-17 15:55 37.371343 -117.228362 145 37487ft 546kts
06-Dec-17 15:56 37.246564 -117.122236 146 37485ft 546kts
06-Dec-17 15:57 37.122351 -117.017305 146 36677ft 531kts
06-Dec-17 15:58 36.999118 -116.913589 147 34374ft 543kts
06-Dec-17 15:59 36.880494 -116.814433 147 31606ft 513kts
06-Dec-17 16:00 36.772609 -116.706425 131 29289ft 494kts
06-Dec-17 16:01 36.684284 -116.581764 129 26937ft 473kts
06-Dec-17 16:02 36.600218 -116.462330 129 24332ft 451kts
06-Dec-17 16:03 36.519824 -116.348500 129 21790ft 431kts
06-Dec-17 16:04 36.443280 -116.240474 129 19317ft 412kts
06-Dec-17 16:05 36.369731 -116.137010 129 16905ft 394kts
06-Dec-17 16:06 36.299643 -116.038634 129 16415ft 410kts
06-Dec-17 16:07 36.220465 -115.927998 129 16398ft 441kts
06-Dec-17 16:08 36.167304 -115.795774 109 16398ft 431kts
06-Dec-17 16:09 36.123474 -115.660786 109 16267ft 394kts
06-Dec-17 16:10 36.082130 -115.543023 111 14018ft 370kts
06-Dec-17 16:11 36.017205 -115.457631 137 10745ft 331kts
06-Dec-17 16:12 35.983067 -115.377410 111 10410ft 289kts
06-Dec-17 16:13 35.951294 -115.290544 111 8808ft 270kts
06-Dec-17 16:14 35.973560 -115.228411 15 5743ft 233kts
06-Dec-17 16:15 36.022341 -115.200652 26 4024ft 173kts
06-Dec-17 16:16 36.062237 -115.177920 25 2676ft 134kts
06-Dec-17 16:17 36.088651 -115.162724 25 2132ft 34kts

Navigation Log

Ident Type
Flight plan parsing failed, navigation log unavailable